Tallevast, FL (34270)

9:51 AM EDT en Septiembre 30, 2014 (GMT -0400)
Sarabay Woods - Whitfield | Change Station
CLOSE
Current Station
Estación meteorológica personal
Location: Sarasota, FL
Altura: 20 ft
Estaciones meteorológicas cercanas

Alt 20 ft 27.41 °N, 82.55 °W | Updated 6 seconds ago

Scattered Clouds
Nubes dispersas
83.6 ° F
Sensación térmica 95 ° F
N
2.0
Viento Variable Viento desde Oeste
Gusts 6.0 mph

Hoy
Alta -- | Baja -- ° F
--% Posibilidad de precipitaciones
Ayer
Alta -- | Baja -- ° F
Precip. -- pul
7:22 AM 7:17 PM
Creciente, 37% visible
Presión 29.84 pul
Visibilidad 10.0 Millas
Nubes Baja 2200 ft
Nubes dispersas 3000 ft
Índice de calor 95 ° F
Punto de rocío 79 ° F
Humedad 87%
Precipitaciones 0.00 pul
Espesor de la nieve No disponible.
UV 1 de una escala de 12
Polen 5.00 de una escala de 12
Calidad del aire No disponible.
Flu Activity No disponible.
METAR KSRQ 301253Z 27008KT 10SM FEW022 SCT030 28/24 A2984 RMK AO2 SLP104 T02780239

More Conditions Fewer Conditions

Presión 29.84 pul
Visibilidad 10.0 Millas
Nubes Baja 2200 ft
Nubes dispersas 3000 ft
Índice de calor 95 ° F
Punto de rocío 79 ° F
Humedad 87%
Precipitaciones 0.00 pul
Espesor de la nieve No disponible.
UV 1 de una escala de 12
Polen 5.00 de una escala de 12
Calidad del aire No disponible.
Flu Activity No disponible.
METAR KSRQ 301253Z 27008KT 10SM FEW022 SCT030 28/24 A2984 RMK AO2 SLP104 T02780239

More Conditions Fewer Conditions

10-Day Weather Forecast

Almanac

Astronomía

Sep. 30, 2014 Salida Puesta
Hora real 7:22 AM EDT 7:17 PM EDT
Crepúsculo civil 6:59 AM EDT 7:40 PM EDT
Crepúsculo náutico 6:32 AM EDT 8:07 PM EDT
Crepúsculo astronómico 6:04 AM EDT 8:34 PM EDT
Luna 1:05 PM EDT Sin puesta de luna
Horas de luz 12h 41m
Horas de luz
11h 55m
Tomorrow will be 1m 36s shorter.
Creciente, 37% of the Moon is Illuminated
Hoy
Creciente
Oct 1
Cuarto creciente
Oct 8
Luna llena
Oct 15
Cuarto menguante
Oct 23
Nueva

Extremos de hoy

Máximos del estado Bajos del estado

Community

WunderPhotos

Upload Photos

1,757,636 ¡fotos cargadas!

Nearby

Grosos de nieve

Estación Profundido Altura
No tenemos constancia de nieve nueva.

Actividad de terremotos

Ciudad Distance Mag. Tiempo y dato
No hay informes recientes de la actividad sísmica.
Magnitud mínima muestra es 2,5.

Temperaturas de aguas costeras

Lugar Temperatura
Clearwater Beach, FL 82.0 ° F
Port Manatee, FL 82.0 ° F
St Petersburg, FL 84.9 ° F
Old Port Tampa, FL 82.9 ° F
McKay Bay Entrance, FL 84.9 ° F

Estaciones meteorológicas cercanas